NORTHEAST SUFFOLK  -  Coastal Flood Advisory Coastal Flood Advisory     Rip Current Statement Rip Current Statement     Rip Current Statement Rip Current Statement        NORTHERN NASSAU  -  Coastal Flood Advisory Coastal Flood Advisory     Rip Current Statement Rip Current Statement        NORTHERN QUEENS  -  Coastal Flood Advisory Coastal Flood Advisory     Rip Current Statement Rip Current Statement        NORTHWEST SUFFOLK  -  Coastal Flood Advisory Coastal Flood Advisory     Rip Current Statement Rip Current Statement     Rip Current Statement Rip Current Statement        SOUTHEAST SUFFOLK  -  Coastal Flood Advisory Coastal Flood Advisory     Rip Current Statement Rip Current Statement     Rip Current Statement Rip Current Statement        SOUTHERN NASSAU  -  Coastal Flood Advisory Coastal Flood Advisory     Rip Current Statement Rip Current Statement        SOUTHERN QUEENS  -  Coastal Flood Advisory Coastal Flood Advisory     Rip Current Statement Rip Current Statement        SOUTHWEST SUFFOLK  -  Coastal Flood Advisory Coastal Flood Advisory     Rip Current Statement Rip Current Statement     Rip Current Statement Rip Current Statement      

Active alerts

Northern Queens
  Details for Northern Queens Coastal Flood Advisory  +1 additional alert
Southern Queens
  Details for Southern Queens Coastal Flood Advisory  +1 additional alert
Northern Nassau
  Details for Northern Nassau Coastal Flood Advisory  +1 additional alert
Southern Nassau
  Details for Southern Nassau Coastal Flood Advisory  +1 additional alert
Northwest Suffolk
  Details for Northwest Suffolk Coastal Flood Advisory  +2 additional alerts
Southwest Suffolk
  Details for Southwest Suffolk Coastal Flood Advisory  +2 additional alerts
Northeast Suffolk
  Details for Northeast Suffolk Coastal Flood Advisory  +2 additional alerts
Southeast Suffolk
  Details for Southeast Suffolk Coastal Flood Advisory  +2 additional alerts


WXM80 ListenWXM80 Stop

You find our weather info also at:

UK Metoffice

WeatherCloud

Weather Underground

Northeastern Weather Network

AWEKAS

Citizen Weather Observer Program (CWOP)

HAMweather, WeatherForYou, PWS Weather


Weather Underground History page Text

Daily Summary for September 22, 2017 Units:  English    Metric   Both
« Previous Day
Next Day »
Daily Weekly Monthly Yearly Custom
  Current: High: Low: Average:
Temperature: 67.2 °F 70.1 °F 65.7 °F 67.5 °F
Dew Point: 55.5 °F 57.6 °F 53.3 °F 55 °F
Humidity: 66 % 67 % 61 % 64 %
Wind Speed: 5.7 mph 9.0 mph 3.0 mph 6.1 mph
Wind Gust: 9.2 mph 15.0 mph - -
Wind:NNW - - East
Pressure: 29.93 in 29.95 in 29.91 in -
Precipitation: 0.00 in      
Historical Graphs
 
 
Tabular Data for September 22, 2017
Time Temperature Dew Point Pressure Wind Wind Speed Wind Gust Humidity Rainfall Rate (Hourly)
00:04 70.1 °F 57.4 °F 29.94 in North 4.9 mph 11.5 mph 64 % 0.00 in
00:09 70.1 °F 57.4 °F 29.94 in NNE 6.0 mph 8.1 mph 64 % 0.00 in
00:14 70.0 °F 57.3 °F 29.94 in North 6.3 mph 11.5 mph 64 % 0.00 in
00:15 70.0 °F 57.3 °F 29.94 in NNE 5.7 mph 12.0 mph 64 % 0.00 in
00:20 70.0 °F 57.3 °F 29.94 in North 6.3 mph 10.4 mph 64 % 0.00 in
00:25 69.9 °F 56.7 °F 29.94 in NNE 6.3 mph 8.1 mph 63 % 0.00 in
00:31 69.9 °F 57.2 °F 29.94 in NNE 7.0 mph 12.0 mph 64 % 0.00 in
00:36 69.9 °F 57.6 °F 29.94 in NNE 7.0 mph 10.0 mph 65 % 0.00 in
00:41 69.8 °F 57.1 °F 29.94 in NNE 7.0 mph 13.0 mph 64 % 0.00 in
00:46 69.7 °F 57.0 °F 29.94 in NNE 7.0 mph 12.0 mph 64 % 0.00 in
00:51 69.7 °F 57.0 °F 29.95 in NNE 6.0 mph 12.0 mph 64 % 0.00 in
00:56 69.6 °F 56.9 °F 29.95 in NNE 7.0 mph 13.0 mph 64 % 0.00 in
01:01 69.6 °F 56.4 °F 29.95 in NNE 5.4 mph 12.7 mph 63 % 0.00 in
01:06 69.5 °F 56.8 °F 29.95 in North 5.6 mph 8.1 mph 64 % 0.00 in
01:11 69.5 °F 56.3 °F 29.95 in North 4.3 mph 9.2 mph 63 % 0.00 in
01:16 69.4 °F 56.7 °F 29.94 in NNE 6.8 mph 11.5 mph 64 % 0.00 in
01:21 69.4 °F 56.3 °F 29.94 in NNE 4.5 mph 10.4 mph 63 % 0.00 in
01:26 69.3 °F 56.2 °F 29.94 in NE 5.5 mph 11.5 mph 63 % 0.00 in
01:31 69.3 °F 56.2 °F 29.94 in North 5.6 mph 9.0 mph 63 % 0.00 in
01:36 69.3 °F 56.2 °F 29.94 in NNE 6.2 mph 10.4 mph 63 % 0.00 in
01:41 69.2 °F 56.1 °F 29.94 in NNE 6.0 mph 10.4 mph 63 % 0.00 in
01:46 69.2 °F 56.5 °F 29.94 in NE 8.2 mph 12.0 mph 64 % 0.00 in
01:51 69.1 °F 56.0 °F 29.94 in NNE 7.0 mph 10.4 mph 63 % 0.00 in
01:56 69.0 °F 55.4 °F 29.93 in NNE 5.2 mph 10.0 mph 62 % 0.00 in
02:01 69.0 °F 55.9 °F 29.93 in North 7.7 mph 11.0 mph 63 % 0.00 in
02:06 69.0 °F 55.4 °F 29.93 in NE 5.8 mph 9.2 mph 62 % 0.00 in
02:11 68.9 °F 55.8 °F 29.93 in NNE 5.5 mph 9.2 mph 63 % 0.00 in
02:16 68.9 °F 55.3 °F 29.93 in NNE 4.5 mph 9.2 mph 62 % 0.00 in
02:21 68.9 °F 55.3 °F 29.93 in NNW 6.8 mph 11.0 mph 62 % 0.00 in
02:26 68.8 °F 54.8 °F 29.93 in North 7.5 mph 12.7 mph 61 % 0.00 in
02:31 68.7 °F 55.2 °F 29.93 in NNW 7.6 mph 11.5 mph 62 % 0.00 in
02:36 68.6 °F 55.1 °F 29.92 in NNE 7.6 mph 13.0 mph 62 % 0.00 in
02:41 68.6 °F 55.1 °F 29.92 in North 8.1 mph 9.2 mph 62 % 0.00 in
02:46 68.5 °F 55.4 °F 29.92 in NNE 6.6 mph 13.8 mph 63 % 0.00 in
02:51 68.5 °F 55.0 °F 29.92 in NNE 4.3 mph 9.2 mph 62 % 0.00 in
02:56 68.4 °F 55.3 °F 29.92 in NNE 6.7 mph 9.0 mph 63 % 0.00 in
03:01 68.3 °F 54.8 °F 29.92 in NE 6.2 mph 10.4 mph 62 % 0.00 in
03:07 68.2 °F 55.1 °F 29.92 in NNE 6.8 mph 11.5 mph 63 % 0.00 in
03:12 68.1 °F 54.6 °F 29.92 in North 5.6 mph 9.2 mph 62 % 0.00 in
03:17 68.1 °F 54.6 °F 29.92 in NE 8.1 mph 12.7 mph 62 % 0.00 in
03:22 68.0 °F 54.5 °F 29.92 in North 8.7 mph 11.5 mph 62 % 0.00 in
03:27 67.9 °F 54.0 °F 29.92 in NNE 8.9 mph 13.8 mph 61 % 0.00 in
03:32 67.9 °F 54.8 °F 29.91 in NNE 4.1 mph 6.9 mph 63 % 0.00 in
03:35 67.9 °F 54.8 °F 29.91 in NNW 7.1 mph 14.0 mph 63 % 0.00 in
03:40 67.8 °F 53.9 °F 29.91 in North 4.9 mph 11.5 mph 61 % 0.00 in
03:45 67.8 °F 54.3 °F 29.91 in North 9.0 mph 15.0 mph 62 % 0.00 in
03:55 67.6 °F 54.1 °F 29.91 in NE 6.2 mph 9.2 mph 62 % 0.00 in
04:00 67.6 °F 54.1 °F 29.91 in NNW 7.7 mph 13.8 mph 62 % 0.00 in
04:05 67.5 °F 54.5 °F 29.91 in North 7.6 mph 10.4 mph 63 % 0.00 in
04:10 67.5 °F 54.9 °F 29.91 in NNE 5.3 mph 9.0 mph 64 % 0.00 in
04:15 67.4 °F 54.8 °F 29.91 in NNE 7.3 mph 13.0 mph 64 % 0.00 in
04:20 67.4 °F 54.8 °F 29.91 in NNE 5.6 mph 11.5 mph 64 % 0.00 in
04:25 67.4 °F 54.8 °F 29.91 in NNW 5.4 mph 6.9 mph 64 % 0.00 in
04:30 67.2 °F 55.5 °F 29.91 in North 3.4 mph 11.5 mph 66 % 0.00 in
04:35 67.1 °F 55.4 °F 29.91 in North 4.6 mph 9.2 mph 66 % 0.00 in
04:40 66.9 °F 54.7 °F 29.91 in NNE 7.1 mph 11.5 mph 65 % 0.00 in
04:45 66.8 °F 54.2 °F 29.92 in NE 7.7 mph 10.4 mph 64 % 0.00 in
04:50 66.8 °F 54.7 °F 29.91 in NNE 5.9 mph 8.1 mph 65 % 0.00 in
04:55 66.7 °F 54.6 °F 29.91 in NNW 8.5 mph 11.5 mph 65 % 0.00 in
05:01 66.7 °F 54.1 °F 29.92 in NNE 7.2 mph 12.7 mph 64 % 0.00 in
05:06 66.7 °F 54.6 °F 29.92 in NNE 7.0 mph 13.0 mph 65 % 0.00 in
05:11 66.7 °F 54.6 °F 29.92 in NNE 6.0 mph 13.0 mph 65 % 0.00 in
05:16 66.7 °F 54.6 °F 29.92 in NNE 6.0 mph 14.0 mph 65 % 0.00 in
05:21 66.7 °F 54.6 °F 29.92 in North 7.0 mph 12.0 mph 65 % 0.00 in
05:26 66.7 °F 54.6 °F 29.92 in North 5.0 mph 12.0 mph 65 % 0.00 in
05:31 66.7 °F 54.6 °F 29.92 in North 5.2 mph 10.4 mph 65 % 0.00 in
05:36 66.6 °F 54.5 °F 29.92 in North 3.0 mph 9.0 mph 65 % 0.00 in
05:41 66.6 °F 54.9 °F 29.92 in North 5.0 mph 12.0 mph 66 % 0.00 in
05:46 66.5 °F 54.4 °F 29.92 in North 6.0 mph 12.0 mph 65 % 0.00 in
05:51 66.5 °F 54.4 °F 29.92 in North 6.0 mph 12.0 mph 65 % 0.00 in
05:56 66.5 °F 54.3 °F 29.92 in North 7.0 mph 12.0 mph 65 % 0.00 in
06:01 66.4 °F 53.8 °F 29.92 in NNE 6.8 mph 10.4 mph 64 % 0.00 in
06:06 66.4 °F 54.3 °F 29.92 in NNE 4.6 mph 8.1 mph 65 % 0.00 in
06:11 66.3 °F 54.2 °F 29.92 in North 6.0 mph 10.0 mph 65 % 0.00 in
06:16 66.3 °F 54.2 °F 29.92 in North 6.0 mph 10.0 mph 65 % 0.00 in
06:21 66.2 °F 54.1 °F 29.92 in North 6.0 mph 8.0 mph 65 % 0.00 in
06:26 66.1 °F 54.0 °F 29.93 in NNE 5.0 mph 9.2 mph 65 % 0.00 in
06:31 66.1 °F 54.0 °F 29.93 in NNE 6.4 mph 10.4 mph 65 % 0.00 in
06:36 66.1 °F 54.0 °F 29.93 in North 4.2 mph 8.1 mph 65 % 0.00 in
06:41 66.0 °F 53.9 °F 29.93 in North 7.0 mph 11.5 mph 65 % 0.00 in
06:47 66.0 °F 54.3 °F 29.93 in North 4.5 mph 11.5 mph 66 % 0.00 in
06:52 65.9 °F 53.8 °F 29.93 in NNE 5.5 mph 10.4 mph 65 % 0.00 in
06:57 65.9 °F 53.8 °F 29.93 in North 7.5 mph 12.0 mph 65 % 0.00 in
07:02 65.9 °F 53.8 °F 29.93 in NNW 4.9 mph 9.2 mph 65 % 0.00 in
07:07 65.9 °F 53.4 °F 29.94 in North 7.5 mph 11.5 mph 64 % 0.00 in
07:12 65.9 °F 53.8 °F 29.94 in NNE 7.7 mph 12.7 mph 65 % 0.00 in
07:17 65.9 °F 53.4 °F 29.94 in NNE 7.4 mph 10.4 mph 64 % 0.00 in
07:22 65.9 °F 53.8 °F 29.94 in NNE 8.5 mph 11.5 mph 65 % 0.00 in
07:27 65.9 °F 53.8 °F 29.93 in North 4.1 mph 8.1 mph 65 % 0.00 in
07:32 66.0 °F 53.9 °F 29.93 in NE 8.0 mph 13.8 mph 65 % 0.00 in
07:37 66.0 °F 54.3 °F 29.93 in NNW 5.2 mph 9.2 mph 66 % 0.00 in
07:42 65.9 °F 53.4 °F 29.93 in NNW 8.3 mph 12.7 mph 64 % 0.00 in
07:47 65.9 °F 54.2 °F 29.93 in NNE 6.3 mph 8.1 mph 66 % 0.00 in
07:52 65.8 °F 53.3 °F 29.93 in North 5.2 mph 10.4 mph 64 % 0.00 in
07:57 65.8 °F 53.7 °F 29.93 in North 4.3 mph 8.1 mph 65 % 0.00 in
08:02 65.7 °F 54.0 °F 29.93 in North 4.9 mph 10.4 mph 66 % 0.00 in
08:07 65.7 °F 53.6 °F 29.93 in North 4.3 mph 9.2 mph 65 % 0.00 in
08:13 65.8 °F 53.7 °F 29.93 in North 4.8 mph 8.1 mph 65 % 0.00 in
08:18 65.8 °F 54.1 °F 29.94 in NNE 3.5 mph 9.2 mph 66 % 0.00 in
08:23 65.9 °F 54.6 °F 29.93 in East 4.9 mph 7.0 mph 67 % 0.00 in
08:28 66.0 °F 54.7 °F 29.93 in North 5.0 mph 9.2 mph 67 % 0.00 in
08:33 66.2 °F 54.5 °F 29.93 in North 6.6 mph 11.5 mph 66 % 0.00 in
08:38 66.4 °F 54.7 °F 29.93 in North 6.7 mph 10.4 mph 66 % 0.00 in
08:43 66.6 °F 54.9 °F 29.93 in North 3.9 mph 8.1 mph 66 % 0.00 in
08:48 66.7 °F 55.0 °F 29.93 in North 5.3 mph 9.2 mph 66 % 0.00 in
08:53 66.9 °F 54.7 °F 29.94 in NNE 3.9 mph 7.0 mph 65 % 0.00 in
08:58 67.0 °F 55.3 °F 29.93 in North 3.6 mph 5.8 mph 66 % 0.00 in
09:03 67.0 °F 54.8 °F 29.93 in NNE 6.9 mph 10.4 mph 65 % 0.00 in
09:08 67.1 °F 54.9 °F 29.93 in North 8.8 mph 12.7 mph 65 % 0.00 in
09:13 67.1 °F 54.9 °F 29.93 in NE 5.2 mph 9.2 mph 65 % 0.00 in
09:18 67.2 °F 55.5 °F 29.93 in NNW 5.7 mph 9.2 mph 66 % 0.00 in
Crab Meadow Weather
Compliments of Weather Underground - 2 mb

Script developed by  Jim McMurry - jmcmurry@mwt.net Adapted for the template by  Wim van der Kuil - Leuven-Template.eu

Weather Terms: Flood Stage - The level or stage at which a stream overflows its banks or the stage at which the overflow of a stream begins to cause damage.